sensor_id;sensor_type;location;lat;lon;timestamp;P1;durP1;ratioP1;P2;durP2;ratioP2
52838;SDS011;39219;53.678;9.856;2023-07-13T00:00:34;6.72;;;3.17;;
52838;SDS011;39219;53.678;9.856;2023-07-13T00:03:02;7.05;;;3.45;;
52838;SDS011;39219;53.678;9.856;2023-07-13T00:05:29;5.55;;;3.60;;
52838;SDS011;39219;53.678;9.856;2023-07-13T00:07:56;8.18;;;3.60;;
52838;SDS011;39219;53.678;9.856;2023-07-13T00:10:22;6.78;;;3.65;;
52838;SDS011;39219;53.678;9.856;2023-07-13T00:12:48;5.70;;;3.42;;
52838;SDS011;39219;53.678;9.856;2023-07-13T00:15:16;5.00;;;3.20;;
52838;SDS011;39219;53.678;9.856;2023-07-13T00:17:45;6.75;;;3.40;;
52838;SDS011;39219;53.678;9.856;2023-07-13T00:20:13;5.05;;;3.28;;
52838;SDS011;39219;53.678;9.856;2023-07-13T00:22:39;6.68;;;3.47;;
52838;SDS011;39219;53.678;9.856;2023-07-13T00:25:06;7.70;;;3.80;;
52838;SDS011;39219;53.678;9.856;2023-07-13T00:27:32;7.40;;;3.40;;
52838;SDS011;39219;53.678;9.856;2023-07-13T00:29:59;7.05;;;3.35;;
52838;SDS011;39219;53.678;9.856;2023-07-13T00:32:25;7.82;;;3.70;;
52838;SDS011;39219;53.678;9.856;2023-07-13T00:34:51;5.72;;;3.38;;
52838;SDS011;39219;53.678;9.856;2023-07-13T00:37:19;5.22;;;3.33;;
52838;SDS011;39219;53.678;9.856;2023-07-13T00:39:45;6.13;;;3.65;;
52838;SDS011;39219;53.678;9.856;2023-07-13T00:42:12;7.07;;;3.97;;
52838;SDS011;39219;53.678;9.856;2023-07-13T00:44:38;7.63;;;3.55;;
52838;SDS011;39219;53.678;9.856;2023-07-13T00:47:05;7.55;;;3.58;;
52838;SDS011;39219;53.678;9.856;2023-07-13T00:49:32;7.75;;;3.90;;
52838;SDS011;39219;53.678;9.856;2023-07-13T00:51:59;5.45;;;3.88;;
52838;SDS011;39219;53.678;9.856;2023-07-13T00:54:29;7.32;;;3.95;;
52838;SDS011;39219;53.678;9.856;2023-07-13T00:56:57;7.38;;;3.70;;
52838;SDS011;39219;53.678;9.856;2023-07-13T00:59:25;8.77;;;3.90;;
52838;SDS011;39219;53.678;9.856;2023-07-13T01:01:51;7.28;;;3.60;;
52838;SDS011;39219;53.678;9.856;2023-07-13T01:04:17;7.00;;;3.80;;
52838;SDS011;39219;53.678;9.856;2023-07-13T01:06:44;7.60;;;3.67;;
52838;SDS011;39219;53.678;9.856;2023-07-13T01:09:11;9.38;;;4.38;;
52838;SDS011;39219;53.678;9.856;2023-07-13T01:11:39;6.88;;;4.00;;
52838;SDS011;39219;53.678;9.856;2023-07-13T01:14:06;7.35;;;4.07;;
52838;SDS011;39219;53.678;9.856;2023-07-13T01:16:33;7.10;;;4.20;;
52838;SDS011;39219;53.678;9.856;2023-07-13T01:19:00;8.98;;;4.47;;
52838;SDS011;39219;53.678;9.856;2023-07-13T01:21:29;8.75;;;5.00;;
52838;SDS011;39219;53.678;9.856;2023-07-13T01:23:55;9.45;;;4.90;;
52838;SDS011;39219;53.678;9.856;2023-07-13T01:26:21;13.02;;;6.13;;
52838;SDS011;39219;53.678;9.856;2023-07-13T01:28:48;10.77;;;5.60;;
52838;SDS011;39219;53.678;9.856;2023-07-13T01:31:14;11.25;;;5.72;;
52838;SDS011;39219;53.678;9.856;2023-07-13T01:33:41;9.23;;;5.55;;
52838;SDS011;39219;53.678;9.856;2023-07-13T01:36:07;9.90;;;5.95;;
52838;SDS011;39219;53.678;9.856;2023-07-13T01:38:35;10.45;;;6.40;;
52838;SDS011;39219;53.678;9.856;2023-07-13T01:41:07;12.43;;;6.75;;
52838;SDS011;39219;53.678;9.856;2023-07-13T01:43:33;10.20;;;6.50;;
52838;SDS011;39219;53.678;9.856;2023-07-13T01:46:00;11.25;;;6.65;;
52838;SDS011;39219;53.678;9.856;2023-07-13T01:48:26;11.52;;;6.57;;
52838;SDS011;39219;53.678;9.856;2023-07-13T01:50:52;10.95;;;6.80;;
52838;SDS011;39219;53.678;9.856;2023-07-13T01:53:18;10.95;;;6.85;;
52838;SDS011;39219;53.678;9.856;2023-07-13T01:55:46;10.80;;;6.55;;
52838;SDS011;39219;53.678;9.856;2023-07-13T01:58:12;12.20;;;7.00;;
52838;SDS011;39219;53.678;9.856;2023-07-13T02:00:39;12.50;;;7.03;;
52838;SDS011;39219;53.678;9.856;2023-07-13T02:03:05;13.75;;;7.45;;
52838;SDS011;39219;53.678;9.856;2023-07-13T02:05:31;10.68;;;6.80;;
52838;SDS011;39219;53.678;9.856;2023-07-13T02:07:57;11.05;;;7.30;;
52838;SDS011;39219;53.678;9.856;2023-07-13T02:10:24;11.30;;;7.35;;
52838;SDS011;39219;53.678;9.856;2023-07-13T02:12:51;12.88;;;7.05;;
52838;SDS011;39219;53.678;9.856;2023-07-13T02:15:18;13.65;;;7.55;;
52838;SDS011;39219;53.678;9.856;2023-07-13T02:17:44;13.15;;;8.10;;
52838;SDS011;39219;53.678;9.856;2023-07-13T02:20:10;14.35;;;8.13;;
52838;SDS011;39219;53.678;9.856;2023-07-13T02:22:37;11.88;;;7.82;;
52838;SDS011;39219;53.678;9.856;2023-07-13T02:25:03;12.13;;;7.90;;
52838;SDS011;39219;53.678;9.856;2023-07-13T02:27:30;16.65;;;8.73;;
52838;SDS011;39219;53.678;9.856;2023-07-13T02:29:57;14.77;;;8.77;;
52838;SDS011;39219;53.678;9.856;2023-07-13T02:32:23;13.45;;;9.07;;
52838;SDS011;39219;53.678;9.856;2023-07-13T02:34:50;17.23;;;9.20;;
52838;SDS011;39219;53.678;9.856;2023-07-13T02:37:17;14.93;;;9.18;;
52838;SDS011;39219;53.678;9.856;2023-07-13T02:39:44;17.00;;;9.60;;
52838;SDS011;39219;53.678;9.856;2023-07-13T02:42:10;15.77;;;10.15;;
52838;SDS011;39219;53.678;9.856;2023-07-13T02:44:36;16.60;;;10.02;;
52838;SDS011;39219;53.678;9.856;2023-07-13T02:47:04;15.18;;;9.48;;
52838;SDS011;39219;53.678;9.856;2023-07-13T02:49:30;14.93;;;9.55;;
52838;SDS011;39219;53.678;9.856;2023-07-13T02:51:57;16.17;;;10.02;;
52838;SDS011;39219;53.678;9.856;2023-07-13T02:54:23;15.05;;;9.80;;
52838;SDS011;39219;53.678;9.856;2023-07-13T02:56:49;16.17;;;9.93;;
52838;SDS011;39219;53.678;9.856;2023-07-13T02:59:15;15.77;;;10.15;;
52838;SDS011;39219;53.678;9.856;2023-07-13T03:01:42;16.70;;;10.30;;
52838;SDS011;39219;53.678;9.856;2023-07-13T03:04:09;66.38;;;12.10;;
52838;SDS011;39219;53.678;9.856;2023-07-13T03:06:37;22.38;;;11.63;;
52838;SDS011;39219;53.678;9.856;2023-07-13T03:09:03;66.72;;;13.70;;
52838;SDS011;39219;53.678;9.856;2023-07-13T03:11:29;236.73;;;19.02;;
52838;SDS011;39219;53.678;9.856;2023-07-13T03:13:56;126.70;;;15.60;;
52838;SDS011;39219;53.678;9.856;2023-07-13T03:16:22;82.95;;;13.95;;
52838;SDS011;39219;53.678;9.856;2023-07-13T03:18:49;139.35;;;16.88;;
52838;SDS011;39219;53.678;9.856;2023-07-13T03:21:16;30.25;;;11.55;;
52838;SDS011;39219;53.678;9.856;2023-07-13T03:23:42;20.85;;;10.73;;
52838;SDS011;39219;53.678;9.856;2023-07-13T03:26:10;99.00;;;14.70;;
52838;SDS011;39219;53.678;9.856;2023-07-13T03:28:37;18.83;;;11.63;;
52838;SDS011;39219;53.678;9.856;2023-07-13T03:31:04;18.52;;;10.90;;
52838;SDS011;39219;53.678;9.856;2023-07-13T03:33:31;20.45;;;11.05;;
52838;SDS011;39219;53.678;9.856;2023-07-13T03:35:57;17.83;;;10.73;;
52838;SDS011;39219;53.678;9.856;2023-07-13T03:38:25;19.08;;;10.50;;
52838;SDS011;39219;53.678;9.856;2023-07-13T03:40:51;17.83;;;9.93;;
52838;SDS011;39219;53.678;9.856;2023-07-13T03:43:18;16.30;;;10.70;;
52838;SDS011;39219;53.678;9.856;2023-07-13T03:45:45;16.52;;;10.05;;
52838;SDS011;39219;53.678;9.856;2023-07-13T03:48:11;16.48;;;10.02;;
52838;SDS011;39219;53.678;9.856;2023-07-13T03:50:37;18.67;;;10.05;;
52838;SDS011;39219;53.678;9.856;2023-07-13T03:53:04;16.33;;;9.95;;
52838;SDS011;39219;53.678;9.856;2023-07-13T03:55:31;17.02;;;9.20;;
52838;SDS011;39219;53.678;9.856;2023-07-13T03:57:59;14.35;;;9.30;;
52838;SDS011;39219;53.678;9.856;2023-07-13T04:00:25;14.90;;;8.82;;
52838;SDS011;39219;53.678;9.856;2023-07-13T04:02:53;15.63;;;9.48;;
52838;SDS011;39219;53.678;9.856;2023-07-13T04:05:19;14.80;;;9.35;;
52838;SDS011;39219;53.678;9.856;2023-07-13T04:07:45;15.48;;;9.27;;
52838;SDS011;39219;53.678;9.856;2023-07-13T04:10:12;14.68;;;9.32;;
52838;SDS011;39219;53.678;9.856;2023-07-13T04:12:39;17.88;;;9.90;;
52838;SDS011;39219;53.678;9.856;2023-07-13T04:15:06;15.60;;;8.80;;
52838;SDS011;39219;53.678;9.856;2023-07-13T04:17:33;14.25;;;8.38;;
52838;SDS011;39219;53.678;9.856;2023-07-13T04:19:59;17.40;;;8.63;;
52838;SDS011;39219;53.678;9.856;2023-07-13T04:22:25;37.25;;;8.85;;
52838;SDS011;39219;53.678;9.856;2023-07-13T04:24:51;38.00;;;8.77;;
52838;SDS011;39219;53.678;9.856;2023-07-13T04:27:18;115.22;;;12.10;;
52838;SDS011;39219;53.678;9.856;2023-07-13T04:29:45;19.75;;;8.57;;
52838;SDS011;39219;53.678;9.856;2023-07-13T04:32:12;42.80;;;9.48;;
52838;SDS011;39219;53.678;9.856;2023-07-13T04:34:38;31.58;;;8.77;;
52838;SDS011;39219;53.678;9.856;2023-07-13T04:37:04;11.88;;;7.43;;
52838;SDS011;39219;53.678;9.856;2023-07-13T04:39:31;70.13;;;10.85;;
52838;SDS011;39219;53.678;9.856;2023-07-13T04:41:57;16.77;;;6.90;;
52838;SDS011;39219;53.678;9.856;2023-07-13T04:44:23;13.25;;;7.53;;
52838;SDS011;39219;53.678;9.856;2023-07-13T04:46:51;16.30;;;7.40;;
52838;SDS011;39219;53.678;9.856;2023-07-13T04:49:17;17.23;;;7.43;;
52838;SDS011;39219;53.678;9.856;2023-07-13T04:51:43;14.65;;;7.80;;
52838;SDS011;39219;53.678;9.856;2023-07-13T04:54:10;16.10;;;7.43;;
52838;SDS011;39219;53.678;9.856;2023-07-13T04:56:36;16.48;;;7.68;;
52838;SDS011;39219;53.678;9.856;2023-07-13T04:59:02;12.25;;;7.65;;
52838;SDS011;39219;53.678;9.856;2023-07-13T05:01:28;15.93;;;7.72;;
52838;SDS011;39219;53.678;9.856;2023-07-13T05:03:57;15.65;;;8.00;;
52838;SDS011;39219;53.678;9.856;2023-07-13T05:06:24;15.13;;;6.63;;
52838;SDS011;39219;53.678;9.856;2023-07-13T05:08:50;17.02;;;7.03;;
52838;SDS011;39219;53.678;9.856;2023-07-13T05:11:17;13.27;;;6.40;;
52838;SDS011;39219;53.678;9.856;2023-07-13T05:13:44;12.60;;;6.80;;
52838;SDS011;39219;53.678;9.856;2023-07-13T05:16:10;12.65;;;6.63;;
52838;SDS011;39219;53.678;9.856;2023-07-13T05:18:37;15.95;;;6.40;;
52838;SDS011;39219;53.678;9.856;2023-07-13T05:21:05;10.68;;;5.82;;
52838;SDS011;39219;53.678;9.856;2023-07-13T05:23:32;10.63;;;5.95;;
52838;SDS011;39219;53.678;9.856;2023-07-13T05:25:58;11.32;;;5.72;;
52838;SDS011;39219;53.678;9.856;2023-07-13T05:28:25;12.10;;;5.88;;
52838;SDS011;39219;53.678;9.856;2023-07-13T05:30:51;12.85;;;6.32;;
52838;SDS011;39219;53.678;9.856;2023-07-13T05:33:19;14.05;;;5.97;;
52838;SDS011;39219;53.678;9.856;2023-07-13T05:35:45;13.70;;;6.28;;
52838;SDS011;39219;53.678;9.856;2023-07-13T05:38:13;11.77;;;6.07;;
52838;SDS011;39219;53.678;9.856;2023-07-13T05:40:39;14.32;;;6.40;;
52838;SDS011;39219;53.678;9.856;2023-07-13T05:43:05;14.82;;;7.00;;
52838;SDS011;39219;53.678;9.856;2023-07-13T05:45:31;13.85;;;6.47;;
52838;SDS011;39219;53.678;9.856;2023-07-13T05:47:58;16.48;;;6.85;;
52838;SDS011;39219;53.678;9.856;2023-07-13T05:50:25;14.88;;;7.35;;
52838;SDS011;39219;53.678;9.856;2023-07-13T05:52:51;14.65;;;6.78;;
52838;SDS011;39219;53.678;9.856;2023-07-13T05:55:20;16.95;;;6.72;;
52838;SDS011;39219;53.678;9.856;2023-07-13T05:57:46;13.77;;;6.65;;
52838;SDS011;39219;53.678;9.856;2023-07-13T06:00:13;13.50;;;6.53;;
52838;SDS011;39219;53.678;9.856;2023-07-13T06:02:39;16.30;;;7.00;;
52838;SDS011;39219;53.678;9.856;2023-07-13T06:05:06;11.95;;;6.28;;
52838;SDS011;39219;53.678;9.856;2023-07-13T06:07:32;16.50;;;6.82;;
52838;SDS011;39219;53.678;9.856;2023-07-13T06:09:58;13.35;;;6.50;;
52838;SDS011;39219;53.678;9.856;2023-07-13T06:12:26;14.00;;;6.55;;
52838;SDS011;39219;53.678;9.856;2023-07-13T06:14:52;14.40;;;6.40;;
52838;SDS011;39219;53.678;9.856;2023-07-13T06:17:19;17.27;;;6.30;;
52838;SDS011;39219;53.678;9.856;2023-07-13T06:19:45;13.95;;;6.40;;
52838;SDS011;39219;53.678;9.856;2023-07-13T06:22:12;15.15;;;6.30;;
52838;SDS011;39219;53.678;9.856;2023-07-13T06:24:38;14.48;;;5.43;;
52838;SDS011;39219;53.678;9.856;2023-07-13T06:27:04;12.13;;;5.93;;
52838;SDS011;39219;53.678;9.856;2023-07-13T06:29:32;14.18;;;5.50;;
52838;SDS011;39219;53.678;9.856;2023-07-13T06:31:58;13.75;;;5.40;;
52838;SDS011;39219;53.678;9.856;2023-07-13T06:34:25;13.60;;;5.60;;
52838;SDS011;39219;53.678;9.856;2023-07-13T06:36:51;18.23;;;5.90;;
52838;SDS011;39219;53.678;9.856;2023-07-13T06:39:17;12.35;;;5.13;;
52838;SDS011;39219;53.678;9.856;2023-07-13T06:41:44;11.52;;;4.55;;
52838;SDS011;39219;53.678;9.856;2023-07-13T06:44:10;17.42;;;5.55;;
52838;SDS011;39219;53.678;9.856;2023-07-13T06:46:38;11.25;;;4.93;;
52838;SDS011;39219;53.678;9.856;2023-07-13T06:49:04;9.85;;;4.45;;
52838;SDS011;39219;53.678;9.856;2023-07-13T06:51:31;12.93;;;4.72;;
52838;SDS011;39219;53.678;9.856;2023-07-13T06:53:57;13.13;;;4.90;;
52838;SDS011;39219;53.678;9.856;2023-07-13T06:56:23;12.30;;;4.55;;
52838;SDS011;39219;53.678;9.856;2023-07-13T06:58:49;13.02;;;4.72;;
52838;SDS011;39219;53.678;9.856;2023-07-13T07:01:16;73.40;;;7.60;;
52838;SDS011;39219;53.678;9.856;2023-07-13T07:03:43;45.65;;;6.00;;
52838;SDS011;39219;53.678;9.856;2023-07-13T07:06:12;33.05;;;4.93;;
52838;SDS011;39219;53.678;9.856;2023-07-13T07:08:38;35.72;;;5.78;;
52838;SDS011;39219;53.678;9.856;2023-07-13T07:11:05;19.92;;;4.45;;
52838;SDS011;39219;53.678;9.856;2023-07-13T07:13:31;14.23;;;3.92;;
52838;SDS011;39219;53.678;9.856;2023-07-13T07:15:58;12.18;;;3.70;;
52838;SDS011;39219;53.678;9.856;2023-07-13T07:18:25;10.23;;;3.75;;
52838;SDS011;39219;53.678;9.856;2023-07-13T07:20:52;9.07;;;3.58;;
52838;SDS011;39219;53.678;9.856;2023-07-13T07:23:19;10.88;;;4.10;;
52838;SDS011;39219;53.678;9.856;2023-07-13T07:25:45;11.38;;;3.88;;
52838;SDS011;39219;53.678;9.856;2023-07-13T07:28:12;12.75;;;3.30;;
52838;SDS011;39219;53.678;9.856;2023-07-13T07:30:41;10.65;;;3.35;;
52838;SDS011;39219;53.678;9.856;2023-07-13T07:33:07;10.27;;;3.40;;
52838;SDS011;39219;53.678;9.856;2023-07-13T07:35:34;9.13;;;3.08;;
52838;SDS011;39219;53.678;9.856;2023-07-13T07:38:01;9.38;;;3.20;;
52838;SDS011;39219;53.678;9.856;2023-07-13T07:40:28;8.88;;;2.95;;
52838;SDS011;39219;53.678;9.856;2023-07-13T07:42:54;10.38;;;3.30;;
52838;SDS011;39219;53.678;9.856;2023-07-13T07:45:21;10.35;;;3.10;;
52838;SDS011;39219;53.678;9.856;2023-07-13T07:47:47;9.10;;;3.00;;
52838;SDS011;39219;53.678;9.856;2023-07-13T07:50:13;11.15;;;3.05;;
52838;SDS011;39219;53.678;9.856;2023-07-13T07:52:40;9.63;;;2.90;;
52838;SDS011;39219;53.678;9.856;2023-07-13T07:55:08;10.02;;;3.30;;
52838;SDS011;39219;53.678;9.856;2023-07-13T07:57:34;11.18;;;3.28;;
52838;SDS011;39219;53.678;9.856;2023-07-13T08:00:00;6.72;;;2.80;;
52838;SDS011;39219;53.678;9.856;2023-07-13T08:02:27;8.95;;;2.97;;
52838;SDS011;39219;53.678;9.856;2023-07-13T08:04:53;12.18;;;3.42;;
52838;SDS011;39219;53.678;9.856;2023-07-13T08:07:19;11.65;;;4.28;;
52838;SDS011;39219;53.678;9.856;2023-07-13T08:09:46;7.30;;;3.20;;
52838;SDS011;39219;53.678;9.856;2023-07-13T08:12:14;8.90;;;3.25;;
52838;SDS011;39219;53.678;9.856;2023-07-13T08:14:40;8.55;;;3.25;;
52838;SDS011;39219;53.678;9.856;2023-07-13T08:17:06;11.07;;;3.55;;
52838;SDS011;39219;53.678;9.856;2023-07-13T08:19:32;9.30;;;3.28;;
52838;SDS011;39219;53.678;9.856;2023-07-13T08:21:59;9.88;;;3.40;;
52838;SDS011;39219;53.678;9.856;2023-07-13T08:24:25;7.57;;;3.17;;
52838;SDS011;39219;53.678;9.856;2023-07-13T08:26:51;10.38;;;3.08;;
52838;SDS011;39219;53.678;9.856;2023-07-13T08:29:20;9.75;;;3.13;;
52838;SDS011;39219;53.678;9.856;2023-07-13T08:31:46;10.13;;;3.47;;
52838;SDS011;39219;53.678;9.856;2023-07-13T08:34:12;9.55;;;3.42;;
52838;SDS011;39219;53.678;9.856;2023-07-13T08:36:39;9.50;;;3.10;;
52838;SDS011;39219;53.678;9.856;2023-07-13T08:39:06;10.15;;;2.53;;
52838;SDS011;39219;53.678;9.856;2023-07-13T08:41:32;6.70;;;3.00;;
52838;SDS011;39219;53.678;9.856;2023-07-13T08:43:59;8.75;;;3.00;;
52838;SDS011;39219;53.678;9.856;2023-07-13T08:46:31;7.22;;;2.90;;
52838;SDS011;39219;53.678;9.856;2023-07-13T08:49:00;6.00;;;2.70;;
52838;SDS011;39219;53.678;9.856;2023-07-13T08:51:32;10.48;;;2.60;;
52838;SDS011;39219;53.678;9.856;2023-07-13T08:53:59;6.05;;;2.90;;
52838;SDS011;39219;53.678;9.856;2023-07-13T08:56:27;9.20;;;3.20;;
52838;SDS011;39219;53.678;9.856;2023-07-13T08:58:55;9.18;;;3.13;;
52838;SDS011;39219;53.678;9.856;2023-07-13T09:01:23;7.47;;;3.00;;
52838;SDS011;39219;53.678;9.856;2023-07-13T09:03:53;6.70;;;2.97;;
52838;SDS011;39219;53.678;9.856;2023-07-13T09:06:22;7.82;;;2.85;;
52838;SDS011;39219;53.678;9.856;2023-07-13T09:08:51;9.35;;;3.50;;
52838;SDS011;39219;53.678;9.856;2023-07-13T09:11:24;7.95;;;2.95;;
52838;SDS011;39219;53.678;9.856;2023-07-13T09:13:55;8.18;;;3.05;;
52838;SDS011;39219;53.678;9.856;2023-07-13T09:16:23;7.93;;;2.70;;
52838;SDS011;39219;53.678;9.856;2023-07-13T09:18:50;6.03;;;2.72;;
52838;SDS011;39219;53.678;9.856;2023-07-13T09:21:20;9.77;;;2.70;;
52838;SDS011;39219;53.678;9.856;2023-07-13T09:23:48;7.10;;;2.63;;
52838;SDS011;39219;53.678;9.856;2023-07-13T09:26:15;7.82;;;2.60;;
52838;SDS011;39219;53.678;9.856;2023-07-13T09:28:43;5.18;;;2.33;;
52838;SDS011;39219;53.678;9.856;2023-07-13T09:31:11;7.70;;;2.55;;
52838;SDS011;39219;53.678;9.856;2023-07-13T09:33:39;9.40;;;2.80;;
52838;SDS011;39219;53.678;9.856;2023-07-13T09:36:15;7.82;;;2.72;;
52838;SDS011;39219;53.678;9.856;2023-07-13T09:38:45;7.72;;;2.72;;
52838;SDS011;39219;53.678;9.856;2023-07-13T09:41:15;8.23;;;2.72;;
52838;SDS011;39219;53.678;9.856;2023-07-13T09:46:25;7.38;;;2.97;;
52838;SDS011;39219;53.678;9.856;2023-07-13T09:48:51;7.88;;;2.63;;
52838;SDS011;39219;53.678;9.856;2023-07-13T09:51:18;8.45;;;3.20;;
52838;SDS011;39219;53.678;9.856;2023-07-13T09:53:46;8.07;;;2.88;;
52838;SDS011;39219;53.678;9.856;2023-07-13T09:56:20;7.85;;;2.88;;
52838;SDS011;39219;53.678;9.856;2023-07-13T09:58:46;4.57;;;2.65;;
52838;SDS011;39219;53.678;9.856;2023-07-13T10:01:13;8.48;;;3.03;;
52838;SDS011;39219;53.678;9.856;2023-07-13T10:03:42;7.43;;;2.85;;
52838;SDS011;39219;53.678;9.856;2023-07-13T10:06:17;6.25;;;2.78;;
52838;SDS011;39219;53.678;9.856;2023-07-13T10:08:45;6.43;;;2.70;;
52838;SDS011;39219;53.678;9.856;2023-07-13T10:11:14;5.20;;;3.03;;
52838;SDS011;39219;53.678;9.856;2023-07-13T10:13:44;6.90;;;2.70;;
52838;SDS011;39219;53.678;9.856;2023-07-13T10:16:11;8.93;;;3.22;;
52838;SDS011;39219;53.678;9.856;2023-07-13T10:18:39;7.22;;;3.25;;
52838;SDS011;39219;53.678;9.856;2023-07-13T10:21:10;5.57;;;2.70;;
52838;SDS011;39219;53.678;9.856;2023-07-13T10:23:38;9.80;;;2.90;;
52838;SDS011;39219;53.678;9.856;2023-07-13T10:26:06;7.13;;;2.58;;
52838;SDS011;39219;53.678;9.856;2023-07-13T10:28:35;4.15;;;2.17;;
52838;SDS011;39219;53.678;9.856;2023-07-13T10:31:04;7.53;;;2.65;;
52838;SDS011;39219;53.678;9.856;2023-07-13T10:33:35;6.07;;;2.55;;
52838;SDS011;39219;53.678;9.856;2023-07-13T10:36:05;5.70;;;2.50;;
52838;SDS011;39219;53.678;9.856;2023-07-13T10:38:37;7.85;;;2.60;;
52838;SDS011;39219;53.678;9.856;2023-07-13T10:41:05;6.25;;;2.50;;
52838;SDS011;39219;53.678;9.856;2023-07-13T10:43:34;5.85;;;2.63;;
52838;SDS011;39219;53.678;9.856;2023-07-13T10:46:02;5.38;;;2.60;;
52838;SDS011;39219;53.678;9.856;2023-07-13T10:48:29;5.65;;;2.60;;
52838;SDS011;39219;53.678;9.856;2023-07-13T10:50:57;7.13;;;2.75;;
52838;SDS011;39219;53.678;9.856;2023-07-13T10:53:27;7.63;;;2.75;;
52838;SDS011;39219;53.678;9.856;2023-07-13T10:55:55;7.68;;;2.72;;
52838;SDS011;39219;53.678;9.856;2023-07-13T10:58:23;6.63;;;2.60;;
52838;SDS011;39219;53.678;9.856;2023-07-13T11:00:53;6.43;;;2.95;;
52838;SDS011;39219;53.678;9.856;2023-07-13T11:03:22;6.22;;;2.53;;
52838;SDS011;39219;53.678;9.856;2023-07-13T11:05:51;6.13;;;2.65;;
52838;SDS011;39219;53.678;9.856;2023-07-13T11:08:32;4.47;;;2.10;;
52838;SDS011;39219;53.678;9.856;2023-07-13T11:10:58;5.10;;;1.88;;
52838;SDS011;39219;53.678;9.856;2023-07-13T11:16:26;8.40;;;2.33;;
52838;SDS011;39219;53.678;9.856;2023-07-13T11:19:08;9.02;;;2.33;;
52838;SDS011;39219;53.678;9.856;2023-07-13T11:22:09;4.70;;;1.83;;
52838;SDS011;39219;53.678;9.856;2023-07-13T11:24:48;4.82;;;2.10;;
52838;SDS011;39219;53.678;9.856;2023-07-13T11:27:19;4.18;;;1.77;;
52838;SDS011;39219;53.678;9.856;2023-07-13T11:29:48;6.15;;;2.10;;
52838;SDS011;39219;53.678;9.856;2023-07-13T11:35:00;5.93;;;1.88;;
52838;SDS011;39219;53.678;9.856;2023-07-13T11:37:26;6.25;;;2.00;;
52838;SDS011;39219;53.678;9.856;2023-07-13T11:39:54;4.63;;;1.88;;
52838;SDS011;39219;53.678;9.856;2023-07-13T11:42:21;5.10;;;1.98;;
52838;SDS011;39219;53.678;9.856;2023-07-13T11:44:48;6.32;;;1.80;;
52838;SDS011;39219;53.678;9.856;2023-07-13T11:47:17;5.20;;;2.25;;
52838;SDS011;39219;53.678;9.856;2023-07-13T11:49:47;5.35;;;2.25;;
52838;SDS011;39219;53.678;9.856;2023-07-13T11:52:16;8.10;;;2.75;;
52838;SDS011;39219;53.678;9.856;2023-07-13T11:54:46;5.63;;;2.10;;
52838;SDS011;39219;53.678;9.856;2023-07-13T11:57:18;8.07;;;2.17;;
52838;SDS011;39219;53.678;9.856;2023-07-13T11:59:48;5.03;;;1.80;;
52838;SDS011;39219;53.678;9.856;2023-07-13T12:02:18;6.38;;;2.17;;
52838;SDS011;39219;53.678;9.856;2023-07-13T12:04:49;6.40;;;2.05;;
52838;SDS011;39219;53.678;9.856;2023-07-13T12:07:18;7.40;;;2.72;;
52838;SDS011;39219;53.678;9.856;2023-07-13T12:09:45;10.50;;;3.10;;
52838;SDS011;39219;53.678;9.856;2023-07-13T12:12:11;6.47;;;2.70;;
52838;SDS011;39219;53.678;9.856;2023-07-13T12:14:38;7.35;;;3.00;;
52838;SDS011;39219;53.678;9.856;2023-07-13T12:17:08;5.80;;;2.70;;
52838;SDS011;39219;53.678;9.856;2023-07-13T12:19:35;8.10;;;2.92;;
52838;SDS011;39219;53.678;9.856;2023-07-13T12:22:01;10.70;;;2.90;;
52838;SDS011;39219;53.678;9.856;2023-07-13T12:24:29;7.60;;;2.72;;
52838;SDS011;39219;53.678;9.856;2023-07-13T12:26:58;9.18;;;2.70;;
52838;SDS011;39219;53.678;9.856;2023-07-13T12:29:25;6.85;;;3.00;;
52838;SDS011;39219;53.678;9.856;2023-07-13T12:31:52;5.82;;;2.88;;
52838;SDS011;39219;53.678;9.856;2023-07-13T12:34:19;7.63;;;3.15;;
52838;SDS011;39219;53.678;9.856;2023-07-13T12:36:46;7.10;;;3.00;;
52838;SDS011;39219;53.678;9.856;2023-07-13T12:39:14;6.10;;;2.85;;
52838;SDS011;39219;53.678;9.856;2023-07-13T12:41:42;8.50;;;3.20;;
52838;SDS011;39219;53.678;9.856;2023-07-13T12:44:10;7.40;;;3.00;;
52838;SDS011;39219;53.678;9.856;2023-07-13T12:46:37;6.45;;;2.83;;
52838;SDS011;39219;53.678;9.856;2023-07-13T12:49:05;9.88;;;2.90;;
52838;SDS011;39219;53.678;9.856;2023-07-13T12:51:32;6.13;;;2.80;;
52838;SDS011;39219;53.678;9.856;2023-07-13T12:54:05;7.68;;;2.67;;
52838;SDS011;39219;53.678;9.856;2023-07-13T12:56:32;5.95;;;2.55;;
52838;SDS011;39219;53.678;9.856;2023-07-13T12:59:04;6.20;;;2.60;;
52838;SDS011;39219;53.678;9.856;2023-07-13T13:01:32;8.50;;;3.10;;
52838;SDS011;39219;53.678;9.856;2023-07-13T13:04:00;3.15;;;2.10;;
52838;SDS011;39219;53.678;9.856;2023-07-13T13:06:28;5.70;;;2.47;;
52838;SDS011;39219;53.678;9.856;2023-07-13T13:08:56;3.90;;;2.67;;
52838;SDS011;39219;53.678;9.856;2023-07-13T13:11:23;7.22;;;2.83;;
52838;SDS011;39219;53.678;9.856;2023-07-13T13:13:51;7.93;;;2.90;;
52838;SDS011;39219;53.678;9.856;2023-07-13T13:16:20;8.23;;;3.03;;
52838;SDS011;39219;53.678;9.856;2023-07-13T13:18:47;4.68;;;2.80;;
52838;SDS011;39219;53.678;9.856;2023-07-13T13:21:14;6.40;;;2.85;;
52838;SDS011;39219;53.678;9.856;2023-07-13T13:23:41;6.53;;;2.70;;
52838;SDS011;39219;53.678;9.856;2023-07-13T13:26:10;4.07;;;2.67;;
52838;SDS011;39219;53.678;9.856;2023-07-13T13:28:36;4.47;;;2.38;;
52838;SDS011;39219;53.678;9.856;2023-07-13T13:31:03;5.68;;;2.70;;
52838;SDS011;39219;53.678;9.856;2023-07-13T13:33:30;6.25;;;2.72;;
52838;SDS011;39219;53.678;9.856;2023-07-13T13:35:57;5.50;;;2.75;;
52838;SDS011;39219;53.678;9.856;2023-07-13T13:38:25;4.95;;;2.97;;
52838;SDS011;39219;53.678;9.856;2023-07-13T13:40:51;7.70;;;3.30;;
52838;SDS011;39219;53.678;9.856;2023-07-13T13:43:18;6.28;;;3.30;;
52838;SDS011;39219;53.678;9.856;2023-07-13T13:45:45;7.13;;;3.25;;
52838;SDS011;39219;53.678;9.856;2023-07-13T13:48:15;5.85;;;3.10;;
52838;SDS011;39219;53.678;9.856;2023-07-13T13:50:44;6.22;;;3.17;;
52838;SDS011;39219;53.678;9.856;2023-07-13T13:53:11;5.45;;;3.05;;
52838;SDS011;39219;53.678;9.856;2023-07-13T13:55:38;5.65;;;3.28;;
52838;SDS011;39219;53.678;9.856;2023-07-13T13:58:06;4.75;;;3.05;;
52838;SDS011;39219;53.678;9.856;2023-07-13T14:00:33;8.13;;;3.65;;
52838;SDS011;39219;53.678;9.856;2023-07-13T14:03:00;5.28;;;3.53;;
52838;SDS011;39219;53.678;9.856;2023-07-13T14:05:26;6.28;;;3.25;;
52838;SDS011;39219;53.678;9.856;2023-07-13T14:07:54;5.93;;;3.40;;
52838;SDS011;39219;53.678;9.856;2023-07-13T14:10:21;6.88;;;3.33;;
52838;SDS011;39219;53.678;9.856;2023-07-13T14:12:48;5.28;;;3.10;;
52838;SDS011;39219;53.678;9.856;2023-07-13T14:15:18;7.53;;;3.25;;
52838;SDS011;39219;53.678;9.856;2023-07-13T14:17:45;4.63;;;3.17;;
52838;SDS011;39219;53.678;9.856;2023-07-13T14:20:14;6.30;;;3.10;;
52838;SDS011;39219;53.678;9.856;2023-07-13T14:22:40;4.22;;;2.90;;
52838;SDS011;39219;53.678;9.856;2023-07-13T14:25:11;3.85;;;2.80;;
52838;SDS011;39219;53.678;9.856;2023-07-13T14:27:38;5.15;;;3.00;;
52838;SDS011;39219;53.678;9.856;2023-07-13T14:30:07;4.80;;;2.83;;
52838;SDS011;39219;53.678;9.856;2023-07-13T14:32:37;5.43;;;3.22;;
52838;SDS011;39219;53.678;9.856;2023-07-13T14:35:04;6.13;;;2.80;;
52838;SDS011;39219;53.678;9.856;2023-07-13T14:37:30;5.47;;;3.03;;
52838;SDS011;39219;53.678;9.856;2023-07-13T14:39:56;5.47;;;3.15;;
52838;SDS011;39219;53.678;9.856;2023-07-13T14:42:24;4.32;;;2.70;;
52838;SDS011;39219;53.678;9.856;2023-07-13T14:44:50;5.22;;;2.70;;
52838;SDS011;39219;53.678;9.856;2023-07-13T14:47:17;5.53;;;3.08;;
52838;SDS011;39219;53.678;9.856;2023-07-13T14:49:43;7.05;;;3.00;;